Terminal Aerodrome Forecast
Issued by NWS Nashville, TN

Home | Current Version | Previous Version | Text Only | Print | Product List | Glossary On
Versions: 1 2 3 4 5 6 7 8 9 10 11 12 13 14 15 16
000
FTUS44 KOHX 250100 AAA
TAFCSV
TAF AMD
KCSV 250100Z 2501/2524 17007KT P6SM BKN250
     FM250500 16009KT P6SM BKN170 WS020/18040KT
     FM251300 17011G17KT P6SM OVC140=

USA.gov is the U.S. government's official web portal to all federal, state and local government web resources and services.